sensor_id;sensor_type;location;lat;lon;timestamp;temperature;humidity
25200;DHT22;33094;48.782;9.162;2023-07-13T00:01:49;21.80;90.70
25200;DHT22;33094;48.782;9.162;2023-07-13T00:04:20;21.70;90.80
25200;DHT22;33094;48.782;9.162;2023-07-13T00:06:46;21.70;90.90
25200;DHT22;33094;48.782;9.162;2023-07-13T00:09:13;21.60;91.00
25200;DHT22;33094;48.782;9.162;2023-07-13T00:11:40;21.60;91.00
25200;DHT22;33094;48.782;9.162;2023-07-13T00:14:06;21.30;91.10
25200;DHT22;33094;48.782;9.162;2023-07-13T00:16:34;21.40;91.00
25200;DHT22;33094;48.782;9.162;2023-07-13T00:19:00;21.30;91.00
25200;DHT22;33094;48.782;9.162;2023-07-13T00:21:27;21.20;91.30
25200;DHT22;33094;48.782;9.162;2023-07-13T00:23:53;21.40;91.10
25200;DHT22;33094;48.782;9.162;2023-07-13T00:26:18;21.40;91.20
25200;DHT22;33094;48.782;9.162;2023-07-13T00:28:44;21.30;90.80
25200;DHT22;33094;48.782;9.162;2023-07-13T00:31:11;21.20;91.30
25200;DHT22;33094;48.782;9.162;2023-07-13T00:33:37;21.10;91.10
25200;DHT22;33094;48.782;9.162;2023-07-13T00:36:03;21.10;91.10
25200;DHT22;33094;48.782;9.162;2023-07-13T00:38:29;21.10;91.10
25200;DHT22;33094;48.782;9.162;2023-07-13T00:40:55;20.90;91.10
25200;DHT22;33094;48.782;9.162;2023-07-13T00:43:22;20.90;91.00
25200;DHT22;33094;48.782;9.162;2023-07-13T00:48:23;20.80;91.10
25200;DHT22;33094;48.782;9.162;2023-07-13T00:50:54;20.70;91.10
25200;DHT22;33094;48.782;9.162;2023-07-13T00:53:20;20.80;91.10
25200;DHT22;33094;48.782;9.162;2023-07-13T00:55:51;20.70;91.20
25200;DHT22;33094;48.782;9.162;2023-07-13T00:58:17;20.70;91.00
25200;DHT22;33094;48.782;9.162;2023-07-13T01:00:43;20.70;91.20
25200;DHT22;33094;48.782;9.162;2023-07-13T01:03:08;20.70;91.10
25200;DHT22;33094;48.782;9.162;2023-07-13T01:05:35;20.70;90.80
25200;DHT22;33094;48.782;9.162;2023-07-13T01:08:03;20.70;91.00
25200;DHT22;33094;48.782;9.162;2023-07-13T01:10:30;20.60;91.00
25200;DHT22;33094;48.782;9.162;2023-07-13T01:13:08;20.70;91.00
25200;DHT22;33094;48.782;9.162;2023-07-13T01:15:45;20.70;90.70
25200;DHT22;33094;48.782;9.162;2023-07-13T01:18:17;20.80;90.80
25200;DHT22;33094;48.782;9.162;2023-07-13T01:20:56;20.80;90.70
25200;DHT22;33094;48.782;9.162;2023-07-13T01:23:23;20.90;90.90
25200;DHT22;33094;48.782;9.162;2023-07-13T01:25:50;20.70;90.50
25200;DHT22;33094;48.782;9.162;2023-07-13T01:28:16;20.60;90.70
25200;DHT22;33094;48.782;9.162;2023-07-13T01:30:43;20.70;90.70
25200;DHT22;33094;48.782;9.162;2023-07-13T01:33:14;20.70;90.70
25200;DHT22;33094;48.782;9.162;2023-07-13T01:35:40;20.80;90.40
25200;DHT22;33094;48.782;9.162;2023-07-13T01:38:06;20.70;90.70
25200;DHT22;33094;48.782;9.162;2023-07-13T01:40:33;20.70;90.60
25200;DHT22;33094;48.782;9.162;2023-07-13T01:42:59;20.60;90.70
25200;DHT22;33094;48.782;9.162;2023-07-13T01:45:25;20.40;91.10
25200;DHT22;33094;48.782;9.162;2023-07-13T01:47:50;20.40;91.30
25200;DHT22;33094;48.782;9.162;2023-07-13T01:50:16;20.30;91.20
25200;DHT22;33094;48.782;9.162;2023-07-13T01:52:42;20.40;91.50
25200;DHT22;33094;48.782;9.162;2023-07-13T01:55:08;20.30;91.50
25200;DHT22;33094;48.782;9.162;2023-07-13T01:57:34;20.40;91.50
25200;DHT22;33094;48.782;9.162;2023-07-13T02:00:02;20.40;91.50
25200;DHT22;33094;48.782;9.162;2023-07-13T02:02:28;20.20;91.30
25200;DHT22;33094;48.782;9.162;2023-07-13T02:04:53;20.10;91.50
25200;DHT22;33094;48.782;9.162;2023-07-13T02:07:19;20.20;91.70
25200;DHT22;33094;48.782;9.162;2023-07-13T02:09:45;20.40;91.30
25200;DHT22;33094;48.782;9.162;2023-07-13T02:12:10;20.30;91.30
25200;DHT22;33094;48.782;9.162;2023-07-13T02:14:36;20.10;91.50
25200;DHT22;33094;48.782;9.162;2023-07-13T02:17:01;20.00;91.50
25200;DHT22;33094;48.782;9.162;2023-07-13T02:19:27;20.10;91.50
25200;DHT22;33094;48.782;9.162;2023-07-13T02:21:53;19.90;91.70
25200;DHT22;33094;48.782;9.162;2023-07-13T02:24:18;19.90;91.80
25200;DHT22;33094;48.782;9.162;2023-07-13T02:26:46;19.80;91.30
25200;DHT22;33094;48.782;9.162;2023-07-13T02:29:12;19.80;91.50
25200;DHT22;33094;48.782;9.162;2023-07-13T02:31:37;19.90;91.50
25200;DHT22;33094;48.782;9.162;2023-07-13T02:34:03;19.80;91.40
25200;DHT22;33094;48.782;9.162;2023-07-13T02:36:30;19.90;91.70
25200;DHT22;33094;48.782;9.162;2023-07-13T02:38:55;19.90;91.70
25200;DHT22;33094;48.782;9.162;2023-07-13T02:41:21;19.90;91.50
25200;DHT22;33094;48.782;9.162;2023-07-13T02:43:48;20.00;91.90
25200;DHT22;33094;48.782;9.162;2023-07-13T02:46:14;20.00;92.10
25200;DHT22;33094;48.782;9.162;2023-07-13T02:51:15;19.50;91.90
25200;DHT22;33094;48.782;9.162;2023-07-13T02:53:40;19.50;92.00
25200;DHT22;33094;48.782;9.162;2023-07-13T02:56:06;19.60;92.10
25200;DHT22;33094;48.782;9.162;2023-07-13T02:58:32;19.70;92.20
25200;DHT22;33094;48.782;9.162;2023-07-13T03:01:06;19.60;92.20
25200;DHT22;33094;48.782;9.162;2023-07-13T03:03:32;19.70;92.60
25200;DHT22;33094;48.782;9.162;2023-07-13T03:06:00;19.60;93.10
25200;DHT22;33094;48.782;9.162;2023-07-13T03:08:27;19.20;93.80
25200;DHT22;33094;48.782;9.162;2023-07-13T03:11:01;19.10;93.70
25200;DHT22;33094;48.782;9.162;2023-07-13T03:13:28;19.00;93.60
25200;DHT22;33094;48.782;9.162;2023-07-13T03:15:53;18.90;93.60
25200;DHT22;33094;48.782;9.162;2023-07-13T03:18:19;19.00;93.50
25200;DHT22;33094;48.782;9.162;2023-07-13T03:20:44;19.10;93.30
25200;DHT22;33094;48.782;9.162;2023-07-13T03:23:10;19.30;93.30
25200;DHT22;33094;48.782;9.162;2023-07-13T03:25:36;19.20;93.30
25200;DHT22;33094;48.782;9.162;2023-07-13T03:28:01;19.30;93.50
25200;DHT22;33094;48.782;9.162;2023-07-13T03:30:27;19.50;93.50
25200;DHT22;33094;48.782;9.162;2023-07-13T03:32:53;19.50;93.40
25200;DHT22;33094;48.782;9.162;2023-07-13T03:35:18;19.50;93.50
25200;DHT22;33094;48.782;9.162;2023-07-13T03:37:44;19.60;93.50
25200;DHT22;33094;48.782;9.162;2023-07-13T03:40:11;19.60;93.50
25200;DHT22;33094;48.782;9.162;2023-07-13T03:42:37;19.70;93.20
25200;DHT22;33094;48.782;9.162;2023-07-13T03:45:02;19.30;93.50
25200;DHT22;33094;48.782;9.162;2023-07-13T03:47:28;19.40;93.60
25200;DHT22;33094;48.782;9.162;2023-07-13T03:55:05;19.00;93.70
25200;DHT22;33094;48.782;9.162;2023-07-13T03:57:31;19.00;93.60
25200;DHT22;33094;48.782;9.162;2023-07-13T03:59:57;19.10;93.50
25200;DHT22;33094;48.782;9.162;2023-07-13T04:02:23;19.10;93.60
25200;DHT22;33094;48.782;9.162;2023-07-13T04:04:48;19.10;93.60
25200;DHT22;33094;48.782;9.162;2023-07-13T04:07:14;19.40;93.40
25200;DHT22;33094;48.782;9.162;2023-07-13T04:09:39;19.50;93.30
25200;DHT22;33094;48.782;9.162;2023-07-13T04:12:05;19.80;93.30
25200;DHT22;33094;48.782;9.162;2023-07-13T04:14:31;19.90;93.00
25200;DHT22;33094;48.782;9.162;2023-07-13T04:16:57;19.80;91.60
25200;DHT22;33094;48.782;9.162;2023-07-13T04:19:23;19.90;91.70
25200;DHT22;33094;48.782;9.162;2023-07-13T04:21:48;19.90;92.10
25200;DHT22;33094;48.782;9.162;2023-07-13T04:24:14;19.90;92.40
25200;DHT22;33094;48.782;9.162;2023-07-13T04:26:40;20.10;91.90
25200;DHT22;33094;48.782;9.162;2023-07-13T04:29:07;20.20;92.00
25200;DHT22;33094;48.782;9.162;2023-07-13T04:31:32;20.30;91.10
25200;DHT22;33094;48.782;9.162;2023-07-13T04:33:58;20.10;91.10
25200;DHT22;33094;48.782;9.162;2023-07-13T04:36:24;20.00;91.00
25200;DHT22;33094;48.782;9.162;2023-07-13T04:38:52;19.90;91.40
25200;DHT22;33094;48.782;9.162;2023-07-13T04:41:19;19.70;91.40
25200;DHT22;33094;48.782;9.162;2023-07-13T04:43:45;19.70;91.40
25200;DHT22;33094;48.782;9.162;2023-07-13T04:46:13;19.70;91.50
25200;DHT22;33094;48.782;9.162;2023-07-13T04:48:39;19.70;91.30
25200;DHT22;33094;48.782;9.162;2023-07-13T04:51:05;19.90;91.40
25200;DHT22;33094;48.782;9.162;2023-07-13T04:53:31;19.80;91.50
25200;DHT22;33094;48.782;9.162;2023-07-13T04:55:58;20.00;91.00
25200;DHT22;33094;48.782;9.162;2023-07-13T04:58:24;20.00;91.10
25200;DHT22;33094;48.782;9.162;2023-07-13T05:00:50;19.90;91.00
25200;DHT22;33094;48.782;9.162;2023-07-13T05:03:19;20.20;90.80
25200;DHT22;33094;48.782;9.162;2023-07-13T05:05:58;20.10;90.90
25200;DHT22;33094;48.782;9.162;2023-07-13T05:08:24;20.10;91.10
25200;DHT22;33094;48.782;9.162;2023-07-13T05:10:51;20.20;90.70
25200;DHT22;33094;48.782;9.162;2023-07-13T05:13:16;20.20;90.70
25200;DHT22;33094;48.782;9.162;2023-07-13T05:15:42;20.20;91.10
25200;DHT22;33094;48.782;9.162;2023-07-13T05:18:08;20.40;90.80
25200;DHT22;33094;48.782;9.162;2023-07-13T05:20:33;20.20;90.70
25200;DHT22;33094;48.782;9.162;2023-07-13T05:22:59;20.30;90.80
25200;DHT22;33094;48.782;9.162;2023-07-13T05:25:24;20.40;90.80
25200;DHT22;33094;48.782;9.162;2023-07-13T05:27:50;20.60;90.60
25200;DHT22;33094;48.782;9.162;2023-07-13T05:30:16;20.70;90.60
25200;DHT22;33094;48.782;9.162;2023-07-13T05:32:42;20.90;90.30
25200;DHT22;33094;48.782;9.162;2023-07-13T05:35:08;20.60;90.10
25200;DHT22;33094;48.782;9.162;2023-07-13T05:37:34;20.50;90.30
25200;DHT22;33094;48.782;9.162;2023-07-13T05:39:59;20.60;90.20
25200;DHT22;33094;48.782;9.162;2023-07-13T05:42:25;20.50;90.30
25200;DHT22;33094;48.782;9.162;2023-07-13T05:44:51;20.70;90.40
25200;DHT22;33094;48.782;9.162;2023-07-13T05:47:17;20.60;90.20
25200;DHT22;33094;48.782;9.162;2023-07-13T05:49:42;20.40;90.40
25200;DHT22;33094;48.782;9.162;2023-07-13T05:52:08;20.20;90.40
25200;DHT22;33094;48.782;9.162;2023-07-13T05:54:33;20.20;90.00
25200;DHT22;33094;48.782;9.162;2023-07-13T05:56:59;20.40;90.20
25200;DHT22;33094;48.782;9.162;2023-07-13T05:59:25;20.50;90.20
25200;DHT22;33094;48.782;9.162;2023-07-13T06:01:51;20.50;90.30
25200;DHT22;33094;48.782;9.162;2023-07-13T06:04:18;20.50;90.30
25200;DHT22;33094;48.782;9.162;2023-07-13T06:06:43;20.50;90.20
25200;DHT22;33094;48.782;9.162;2023-07-13T06:09:09;20.60;90.20
25200;DHT22;33094;48.782;9.162;2023-07-13T06:11:35;20.30;90.50
25200;DHT22;33094;48.782;9.162;2023-07-13T06:14:01;20.50;90.50
25200;DHT22;33094;48.782;9.162;2023-07-13T06:16:26;21.00;89.70
25200;DHT22;33094;48.782;9.162;2023-07-13T06:18:52;21.70;87.60
25200;DHT22;33094;48.782;9.162;2023-07-13T06:21:20;22.30;86.70
25200;DHT22;33094;48.782;9.162;2023-07-13T06:23:47;21.80;87.00
25200;DHT22;33094;48.782;9.162;2023-07-13T06:26:13;22.00;86.40
25200;DHT22;33094;48.782;9.162;2023-07-13T06:28:39;20.90;87.40
25200;DHT22;33094;48.782;9.162;2023-07-13T06:31:09;20.20;89.30
25200;DHT22;33094;48.782;9.162;2023-07-13T06:33:36;20.50;89.30
25200;DHT22;33094;48.782;9.162;2023-07-13T06:36:03;20.50;89.10
25200;DHT22;33094;48.782;9.162;2023-07-13T06:38:29;20.90;88.80
25200;DHT22;33094;48.782;9.162;2023-07-13T06:40:54;21.20;87.80
25200;DHT22;33094;48.782;9.162;2023-07-13T06:43:20;21.30;88.00
25200;DHT22;33094;48.782;9.162;2023-07-13T06:45:47;21.30;88.00
25200;DHT22;33094;48.782;9.162;2023-07-13T06:48:18;20.90;88.60
25200;DHT22;33094;48.782;9.162;2023-07-13T06:50:45;21.00;88.30
25200;DHT22;33094;48.782;9.162;2023-07-13T06:53:12;21.40;87.70
25200;DHT22;33094;48.782;9.162;2023-07-13T06:55:38;21.50;87.10
25200;DHT22;33094;48.782;9.162;2023-07-13T06:58:04;20.60;88.00
25200;DHT22;33094;48.782;9.162;2023-07-13T07:00:30;21.10;88.00
25200;DHT22;33094;48.782;9.162;2023-07-13T07:02:56;21.20;88.30
25200;DHT22;33094;48.782;9.162;2023-07-13T07:05:22;21.40;87.80
25200;DHT22;33094;48.782;9.162;2023-07-13T07:07:50;22.00;86.90
25200;DHT22;33094;48.782;9.162;2023-07-13T07:10:17;22.10;85.00
25200;DHT22;33094;48.782;9.162;2023-07-13T07:12:43;21.90;84.70
25200;DHT22;33094;48.782;9.162;2023-07-13T07:15:10;21.70;85.40
25200;DHT22;33094;48.782;9.162;2023-07-13T07:17:36;21.50;86.10
25200;DHT22;33094;48.782;9.162;2023-07-13T07:20:02;21.50;86.90
25200;DHT22;33094;48.782;9.162;2023-07-13T07:22:29;21.60;85.90
25200;DHT22;33094;48.782;9.162;2023-07-13T07:24:55;21.40;85.70
25200;DHT22;33094;48.782;9.162;2023-07-13T07:27:21;21.40;85.70
25200;DHT22;33094;48.782;9.162;2023-07-13T07:29:47;21.50;84.60
25200;DHT22;33094;48.782;9.162;2023-07-13T07:32:13;21.60;84.50
25200;DHT22;33094;48.782;9.162;2023-07-13T07:34:38;21.30;85.10
25200;DHT22;33094;48.782;9.162;2023-07-13T07:37:04;21.20;86.00
25200;DHT22;33094;48.782;9.162;2023-07-13T07:39:31;21.30;85.60
25200;DHT22;33094;48.782;9.162;2023-07-13T07:41:56;21.50;85.70
25200;DHT22;33094;48.782;9.162;2023-07-13T07:44:22;21.70;84.90
25200;DHT22;33094;48.782;9.162;2023-07-13T07:46:48;22.00;84.70
25200;DHT22;33094;48.782;9.162;2023-07-13T07:49:14;22.10;83.10
25200;DHT22;33094;48.782;9.162;2023-07-13T07:51:40;22.20;81.60
25200;DHT22;33094;48.782;9.162;2023-07-13T07:54:06;22.40;81.10
25200;DHT22;33094;48.782;9.162;2023-07-13T07:56:32;22.40;81.40
25200;DHT22;33094;48.782;9.162;2023-07-13T07:58:58;22.40;81.90
25200;DHT22;33094;48.782;9.162;2023-07-13T08:01:24;22.50;81.30
25200;DHT22;33094;48.782;9.162;2023-07-13T08:03:49;22.60;81.00
25200;DHT22;33094;48.782;9.162;2023-07-13T08:06:15;23.40;80.00
25200;DHT22;33094;48.782;9.162;2023-07-13T08:08:41;23.50;78.90
25200;DHT22;33094;48.782;9.162;2023-07-13T08:11:08;23.60;79.10
25200;DHT22;33094;48.782;9.162;2023-07-13T08:13:34;23.70;79.10
25200;DHT22;33094;48.782;9.162;2023-07-13T08:16:00;23.60;77.90
25200;DHT22;33094;48.782;9.162;2023-07-13T08:18:26;23.30;78.70
25200;DHT22;33094;48.782;9.162;2023-07-13T08:20:53;23.60;79.10
25200;DHT22;33094;48.782;9.162;2023-07-13T08:23:22;23.90;78.80
25200;DHT22;33094;48.782;9.162;2023-07-13T08:25:54;24.20;78.00
25200;DHT22;33094;48.782;9.162;2023-07-13T08:28:23;24.70;76.90
25200;DHT22;33094;48.782;9.162;2023-07-13T08:30:49;24.90;76.00
25200;DHT22;33094;48.782;9.162;2023-07-13T08:33:16;25.10;75.80
25200;DHT22;33094;48.782;9.162;2023-07-13T08:35:41;25.20;75.40
25200;DHT22;33094;48.782;9.162;2023-07-13T08:38:07;25.40;75.10
25200;DHT22;33094;48.782;9.162;2023-07-13T08:40:34;25.60;74.90
25200;DHT22;33094;48.782;9.162;2023-07-13T08:43:00;25.70;73.60
25200;DHT22;33094;48.782;9.162;2023-07-13T08:45:33;26.00;74.90
25200;DHT22;33094;48.782;9.162;2023-07-13T08:48:26;26.80;73.50
25200;DHT22;33094;48.782;9.162;2023-07-13T08:53:24;28.50;71.50
25200;DHT22;33094;48.782;9.162;2023-07-13T08:55:58;28.10;71.00
25200;DHT22;33094;48.782;9.162;2023-07-13T08:58:25;28.50;71.00
25200;DHT22;33094;48.782;9.162;2023-07-13T09:03:31;27.20;72.70
25200;DHT22;33094;48.782;9.162;2023-07-13T09:06:02;25.70;75.40
25200;DHT22;33094;48.782;9.162;2023-07-13T09:08:38;26.20;75.30
25200;DHT22;33094;48.782;9.162;2023-07-13T09:16:32;26.80;73.80
25200;DHT22;33094;48.782;9.162;2023-07-13T09:19:04;27.20;73.20
25200;DHT22;33094;48.782;9.162;2023-07-13T09:21:37;26.30;73.70
25200;DHT22;33094;48.782;9.162;2023-07-13T09:27:12;27.50;71.40
25200;DHT22;33094;48.782;9.162;2023-07-13T09:29:45;28.80;70.70
25200;DHT22;33094;48.782;9.162;2023-07-13T09:32:13;29.80;68.60
25200;DHT22;33094;48.782;9.162;2023-07-13T09:34:40;29.70;68.50
25200;DHT22;33094;48.782;9.162;2023-07-13T09:37:05;29.00;70.20
25200;DHT22;33094;48.782;9.162;2023-07-13T09:39:39;29.20;69.30
25200;DHT22;33094;48.782;9.162;2023-07-13T09:42:18;28.40;69.20
25200;DHT22;33094;48.782;9.162;2023-07-13T09:47:29;27.10;71.90
25200;DHT22;33094;48.782;9.162;2023-07-13T09:50:03;26.90;71.20
25200;DHT22;33094;48.782;9.162;2023-07-13T09:52:50;27.90;70.00
25200;DHT22;33094;48.782;9.162;2023-07-13T09:55:42;29.60;67.60
25200;DHT22;33094;48.782;9.162;2023-07-13T09:58:23;30.80;66.30
25200;DHT22;33094;48.782;9.162;2023-07-13T10:01:01;29.40;67.20
25200;DHT22;33094;48.782;9.162;2023-07-13T10:03:34;29.50;67.10
25200;DHT22;33094;48.782;9.162;2023-07-13T10:06:16;28.70;68.10
25200;DHT22;33094;48.782;9.162;2023-07-13T10:08:41;29.40;68.30
25200;DHT22;33094;48.782;9.162;2023-07-13T10:11:14;29.70;66.90
25200;DHT22;33094;48.782;9.162;2023-07-13T10:13:45;29.30;67.50
25200;DHT22;33094;48.782;9.162;2023-07-13T10:16:14;29.10;67.90
25200;DHT22;33094;48.782;9.162;2023-07-13T10:18:47;28.30;68.50
25200;DHT22;33094;48.782;9.162;2023-07-13T10:21:19;26.90;71.70
25200;DHT22;33094;48.782;9.162;2023-07-13T10:23:57;27.90;71.60
25200;DHT22;33094;48.782;9.162;2023-07-13T10:26:31;29.20;68.90
25200;DHT22;33094;48.782;9.162;2023-07-13T10:29:01;29.80;67.70
25200;DHT22;33094;48.782;9.162;2023-07-13T10:31:27;30.30;66.20
25200;DHT22;33094;48.782;9.162;2023-07-13T10:33:53;30.70;65.80
25200;DHT22;33094;48.782;9.162;2023-07-13T10:36:46;30.90;65.10
25200;DHT22;33094;48.782;9.162;2023-07-13T10:39:26;30.80;65.30
25200;DHT22;33094;48.782;9.162;2023-07-13T10:42:00;29.90;66.20
25200;DHT22;33094;48.782;9.162;2023-07-13T10:44:29;30.20;65.90
25200;DHT22;33094;48.782;9.162;2023-07-13T10:47:11;29.80;67.20
25200;DHT22;33094;48.782;9.162;2023-07-13T10:49:44;29.50;66.90
25200;DHT22;33094;48.782;9.162;2023-07-13T10:55:02;28.60;68.70
25200;DHT22;33094;48.782;9.162;2023-07-13T10:57:28;27.00;69.90
25200;DHT22;33094;48.782;9.162;2023-07-13T11:02:30;26.40;71.30
25200;DHT22;33094;48.782;9.162;2023-07-13T11:04:56;27.60;70.00
25200;DHT22;33094;48.782;9.162;2023-07-13T11:07:53;27.80;69.20
25200;DHT22;33094;48.782;9.162;2023-07-13T11:10:49;29.20;68.00
25200;DHT22;33094;48.782;9.162;2023-07-13T11:18:47;29.70;66.50
25200;DHT22;33094;48.782;9.162;2023-07-13T11:23:44;28.00;69.40
25200;DHT22;33094;48.782;9.162;2023-07-13T11:26:39;26.90;69.90
25200;DHT22;33094;48.782;9.162;2023-07-13T11:31:51;28.20;69.00
25200;DHT22;33094;48.782;9.162;2023-07-13T11:34:20;29.60;67.70
25200;DHT22;33094;48.782;9.162;2023-07-13T11:36:47;30.50;65.60
25200;DHT22;33094;48.782;9.162;2023-07-13T11:39:17;31.00;64.20
25200;DHT22;33094;48.782;9.162;2023-07-13T11:41:53;30.50;64.80
25200;DHT22;33094;48.782;9.162;2023-07-13T11:44:22;28.50;67.50
25200;DHT22;33094;48.782;9.162;2023-07-13T11:46:56;30.00;66.30
25200;DHT22;33094;48.782;9.162;2023-07-13T11:49:28;29.40;67.50
25200;DHT22;33094;48.782;9.162;2023-07-13T11:51:55;30.40;66.60
25200;DHT22;33094;48.782;9.162;2023-07-13T11:56:50;30.70;64.80
25200;DHT22;33094;48.782;9.162;2023-07-13T11:59:16;29.70;65.50
25200;DHT22;33094;48.782;9.162;2023-07-13T12:01:47;28.40;68.10
25200;DHT22;33094;48.782;9.162;2023-07-13T12:04:28;29.40;67.30
25200;DHT22;33094;48.782;9.162;2023-07-13T12:06:56;30.30;65.50
25200;DHT22;33094;48.782;9.162;2023-07-13T12:12:00;31.90;64.60
25200;DHT22;33094;48.782;9.162;2023-07-13T12:25:11;28.80;67.60
25200;DHT22;33094;48.782;9.162;2023-07-13T12:27:40;30.20;66.20
25200;DHT22;33094;48.782;9.162;2023-07-13T12:33:01;32.20;62.90
25200;DHT22;33094;48.782;9.162;2023-07-13T13:06:37;30.30;64.60
25200;DHT22;33094;48.782;9.162;2023-07-13T13:09:03;31.60;62.60
25200;DHT22;33094;48.782;9.162;2023-07-13T13:11:31;32.20;61.20
25200;DHT22;33094;48.782;9.162;2023-07-13T13:13:57;32.50;61.30
25200;DHT22;33094;48.782;9.162;2023-07-13T13:16:30;32.80;60.20
25200;DHT22;33094;48.782;9.162;2023-07-13T13:18:59;32.40;60.90
25200;DHT22;33094;48.782;9.162;2023-07-13T13:21:27;31.50;61.20
25200;DHT22;33094;48.782;9.162;2023-07-13T13:23:53;31.20;61.20
25200;DHT22;33094;48.782;9.162;2023-07-13T18:11:52;25.10;71.70
25200;DHT22;33094;48.782;9.162;2023-07-13T18:14:19;24.90;72.40
25200;DHT22;33094;48.782;9.162;2023-07-13T18:16:55;25.00;72.80
25200;DHT22;33094;48.782;9.162;2023-07-13T18:19:32;25.10;73.10
25200;DHT22;33094;48.782;9.162;2023-07-13T18:21:59;25.20;72.90
25200;DHT22;33094;48.782;9.162;2023-07-13T18:24:27;25.10;72.80
25200;DHT22;33094;48.782;9.162;2023-07-13T18:26:53;25.00;72.80
25200;DHT22;33094;48.782;9.162;2023-07-13T18:29:19;24.80;73.70
25200;DHT22;33094;48.782;9.162;2023-07-13T18:31:45;24.80;73.70
25200;DHT22;33094;48.782;9.162;2023-07-13T18:34:12;24.80;74.00
25200;DHT22;33094;48.782;9.162;2023-07-13T18:36:38;24.80;74.00
25200;DHT22;33094;48.782;9.162;2023-07-13T18:39:05;24.80;74.20
25200;DHT22;33094;48.782;9.162;2023-07-13T18:41:31;24.80;74.50
25200;DHT22;33094;48.782;9.162;2023-07-13T18:43:57;24.80;74.10
25200;DHT22;33094;48.782;9.162;2023-07-13T18:46:28;24.80;73.70
25200;DHT22;33094;48.782;9.162;2023-07-13T18:48:57;24.70;74.20
25200;DHT22;33094;48.782;9.162;2023-07-13T18:51:23;24.70;74.50
25200;DHT22;33094;48.782;9.162;2023-07-13T18:53:50;24.70;74.80
25200;DHT22;33094;48.782;9.162;2023-07-13T18:56:15;24.60;74.40
25200;DHT22;33094;48.782;9.162;2023-07-13T18:58:41;24.50;74.80
25200;DHT22;33094;48.782;9.162;2023-07-13T19:03:42;24.30;75.40
25200;DHT22;33094;48.782;9.162;2023-07-13T19:06:08;24.10;75.70
25200;DHT22;33094;48.782;9.162;2023-07-13T19:08:38;23.90;76.30
25200;DHT22;33094;48.782;9.162;2023-07-13T19:11:12;23.90;76.40
25200;DHT22;33094;48.782;9.162;2023-07-13T19:13:38;23.80;76.50
25200;DHT22;33094;48.782;9.162;2023-07-13T19:16:04;23.70;76.60
25200;DHT22;33094;48.782;9.162;2023-07-13T19:18:30;23.70;76.70
25200;DHT22;33094;48.782;9.162;2023-07-13T19:20:57;23.50;76.90
25200;DHT22;33094;48.782;9.162;2023-07-13T19:23:39;23.50;77.30
25200;DHT22;33094;48.782;9.162;2023-07-13T19:26:26;23.50;77.30
25200;DHT22;33094;48.782;9.162;2023-07-13T19:28:55;23.40;77.30
25200;DHT22;33094;48.782;9.162;2023-07-13T19:31:28;23.40;77.70
25200;DHT22;33094;48.782;9.162;2023-07-13T19:34:05;23.30;77.60
25200;DHT22;33094;48.782;9.162;2023-07-13T19:36:39;23.40;77.40
25200;DHT22;33094;48.782;9.162;2023-07-13T19:39:05;23.40;77.40
25200;DHT22;33094;48.782;9.162;2023-07-13T19:41:37;23.30;77.30
25200;DHT22;33094;48.782;9.162;2023-07-13T19:44:02;23.30;77.90
25200;DHT22;33094;48.782;9.162;2023-07-13T19:46:31;23.30;77.90
25200;DHT22;33094;48.782;9.162;2023-07-13T19:48:58;23.30;78.00
25200;DHT22;33094;48.782;9.162;2023-07-13T19:51:23;23.10;78.20
25200;DHT22;33094;48.782;9.162;2023-07-13T19:53:51;23.20;78.70
25200;DHT22;33094;48.782;9.162;2023-07-13T19:56:18;23.30;79.00
25200;DHT22;33094;48.782;9.162;2023-07-13T19:58:44;23.40;77.90
25200;DHT22;33094;48.782;9.162;2023-07-13T20:01:10;23.50;77.90
25200;DHT22;33094;48.782;9.162;2023-07-13T20:03:40;23.60;77.70
25200;DHT22;33094;48.782;9.162;2023-07-13T20:06:26;23.60;77.70
25200;DHT22;33094;48.782;9.162;2023-07-13T20:08:56;23.50;77.80
25200;DHT22;33094;48.782;9.162;2023-07-13T20:11:22;23.40;77.90
25200;DHT22;33094;48.782;9.162;2023-07-13T20:13:48;23.30;78.10
25200;DHT22;33094;48.782;9.162;2023-07-13T20:16:14;23.30;78.00
25200;DHT22;33094;48.782;9.162;2023-07-13T20:18:41;23.30;78.40
25200;DHT22;33094;48.782;9.162;2023-07-13T20:21:10;23.20;78.40
25200;DHT22;33094;48.782;9.162;2023-07-13T20:23:39;23.00;78.60
25200;DHT22;33094;48.782;9.162;2023-07-13T20:26:05;23.00;78.60
25200;DHT22;33094;48.782;9.162;2023-07-13T20:28:31;23.00;78.40
25200;DHT22;33094;48.782;9.162;2023-07-13T20:30:58;23.10;78.70
25200;DHT22;33094;48.782;9.162;2023-07-13T20:33:26;23.10;78.90
25200;DHT22;33094;48.782;9.162;2023-07-13T20:35:54;23.00;78.80
25200;DHT22;33094;48.782;9.162;2023-07-13T20:38:21;23.00;78.70
25200;DHT22;33094;48.782;9.162;2023-07-13T20:40:48;23.10;78.60
25200;DHT22;33094;48.782;9.162;2023-07-13T20:43:18;23.10;78.50
25200;DHT22;33094;48.782;9.162;2023-07-13T20:45:45;23.10;78.70
25200;DHT22;33094;48.782;9.162;2023-07-13T20:50:53;23.10;78.80
25200;DHT22;33094;48.782;9.162;2023-07-13T20:53:20;23.10;78.70
25200;DHT22;33094;48.782;9.162;2023-07-13T20:55:45;23.10;79.30
25200;DHT22;33094;48.782;9.162;2023-07-13T20:58:11;23.10;79.10
25200;DHT22;33094;48.782;9.162;2023-07-13T21:00:38;23.10;79.40
25200;DHT22;33094;48.782;9.162;2023-07-13T21:03:06;23.00;79.50
25200;DHT22;33094;48.782;9.162;2023-07-13T21:05:40;22.90;79.90
25200;DHT22;33094;48.782;9.162;2023-07-13T21:10:37;23.00;79.90
25200;DHT22;33094;48.782;9.162;2023-07-13T21:13:04;22.90;80.00
25200;DHT22;33094;48.782;9.162;2023-07-13T21:15:32;22.90;80.00
25200;DHT22;33094;48.782;9.162;2023-07-13T21:17:59;22.60;80.80
25200;DHT22;33094;48.782;9.162;2023-07-13T21:20:38;22.50;81.20
25200;DHT22;33094;48.782;9.162;2023-07-13T21:23:33;22.40;81.60
25200;DHT22;33094;48.782;9.162;2023-07-13T21:26:00;22.30;82.10
25200;DHT22;33094;48.782;9.162;2023-07-13T21:28:29;22.10;82.20
25200;DHT22;33094;48.782;9.162;2023-07-13T21:30:58;22.00;82.70
25200;DHT22;33094;48.782;9.162;2023-07-13T21:33:25;21.80;83.60
25200;DHT22;33094;48.782;9.162;2023-07-13T21:35:52;21.70;84.20
25200;DHT22;33094;48.782;9.162;2023-07-13T21:38:30;21.70;84.30
25200;DHT22;33094;48.782;9.162;2023-07-13T21:40:59;21.70;84.60
25200;DHT22;33094;48.782;9.162;2023-07-13T21:43:25;21.70;84.70
25200;DHT22;33094;48.782;9.162;2023-07-13T21:45:51;21.60;85.10
25200;DHT22;33094;48.782;9.162;2023-07-13T21:48:17;21.50;85.40
25200;DHT22;33094;48.782;9.162;2023-07-13T21:50:48;21.40;85.70
25200;DHT22;33094;48.782;9.162;2023-07-13T21:53:24;21.40;86.00
25200;DHT22;33094;48.782;9.162;2023-07-13T21:55:52;21.30;86.50
25200;DHT22;33094;48.782;9.162;2023-07-13T21:58:38;21.20;86.80
25200;DHT22;33094;48.782;9.162;2023-07-13T22:01:04;21.20;87.10
25200;DHT22;33094;48.782;9.162;2023-07-13T22:03:37;21.10;87.10